createdAt,value
2023-01-11T00:00:07.682Z,0
2023-01-11T00:03:07.607Z,0
2023-01-11T00:06:07.753Z,0
2023-01-11T00:09:07.529Z,0
2023-01-11T00:12:07.751Z,0
2023-01-11T00:15:07.527Z,0
2023-01-11T00:18:07.637Z,0
2023-01-11T00:21:07.706Z,0
2023-01-11T00:24:07.821Z,0
2023-01-11T00:27:07.579Z,0
2023-01-11T00:30:07.573Z,0
2023-01-11T00:33:07.675Z,0
2023-01-11T00:36:07.665Z,0
2023-01-11T00:39:07.702Z,0
2023-01-11T00:42:07.549Z,0
2023-01-11T00:45:07.624Z,0
2023-01-11T00:48:07.706Z,0
2023-01-11T00:51:07.677Z,0
2023-01-11T00:54:07.619Z,0
2023-01-11T00:57:07.759Z,0
2023-01-11T01:00:07.623Z,0
2023-01-11T01:03:07.559Z,0
2023-01-11T01:06:07.627Z,0
2023-01-11T01:09:07.681Z,0
2023-01-11T01:12:07.796Z,0
2023-01-11T01:15:07.625Z,0
2023-01-11T01:18:07.574Z,0
2023-01-11T01:21:07.591Z,0
2023-01-11T01:24:07.618Z,0
2023-01-11T01:27:07.612Z,0
2023-01-11T01:30:07.677Z,0
2023-01-11T01:33:07.620Z,0
2023-01-11T01:36:07.606Z,0
2023-01-11T01:39:07.683Z,0
2023-01-11T01:42:07.576Z,0
2023-01-11T01:45:07.707Z,0
2023-01-11T01:48:07.738Z,0
2023-01-11T01:51:07.673Z,0
2023-01-11T01:54:07.624Z,0
2023-01-11T01:57:07.552Z,0
2023-01-11T02:00:07.589Z,0
2023-01-11T02:03:08.043Z,0
2023-01-11T02:06:07.599Z,0
2023-01-11T02:09:07.585Z,0
2023-01-11T02:12:07.585Z,0
2023-01-11T02:15:07.676Z,0
2023-01-11T02:18:07.667Z,0
2023-01-11T02:21:07.648Z,0
2023-01-11T02:24:07.641Z,0
2023-01-11T02:27:07.605Z,0
2023-01-11T02:30:07.863Z,0
2023-01-11T02:33:07.545Z,0
2023-01-11T02:36:07.642Z,0
2023-01-11T02:39:07.658Z,0
2023-01-11T02:42:07.625Z,0
2023-01-11T02:45:07.546Z,0
2023-01-11T02:48:07.646Z,0
2023-01-11T02:51:07.842Z,0
2023-01-11T02:54:07.575Z,0
2023-01-11T02:57:07.522Z,0
2023-01-11T03:00:07.705Z,0
2023-01-11T03:03:08.037Z,0
2023-01-11T03:06:07.695Z,0
2023-01-11T03:09:07.526Z,0
2023-01-11T03:12:07.765Z,0
2023-01-11T03:15:07.930Z,0
2023-01-11T03:18:07.642Z,0
2023-01-11T03:21:07.723Z,0
2023-01-11T03:24:07.727Z,0
2023-01-11T03:27:07.525Z,0
2023-01-11T03:30:07.662Z,0
2023-01-11T03:33:07.524Z,0
2023-01-11T03:36:07.560Z,0
2023-01-11T03:39:07.721Z,0
2023-01-11T03:42:07.616Z,0
2023-01-11T03:45:07.585Z,0
2023-01-11T03:48:07.701Z,0
2023-01-11T03:51:07.644Z,0
2023-01-11T03:54:07.575Z,0
2023-01-11T03:57:07.661Z,0
2023-01-11T04:00:07.656Z,0
2023-01-11T04:03:07.538Z,0
2023-01-11T04:06:07.677Z,0
2023-01-11T04:09:07.543Z,0
2023-01-11T04:12:07.694Z,0
2023-01-11T04:15:07.629Z,0
2023-01-11T04:18:07.589Z,0
2023-01-11T04:21:07.622Z,0
2023-01-11T04:24:07.640Z,0
2023-01-11T04:27:07.517Z,0
2023-01-11T04:30:07.662Z,0
2023-01-11T04:33:07.586Z,0
2023-01-11T04:36:07.555Z,0
2023-01-11T04:39:07.631Z,0
2023-01-11T04:42:07.677Z,0
2023-01-11T04:45:07.646Z,0
2023-01-11T04:48:07.611Z,0
2023-01-11T04:51:07.516Z,0
2023-01-11T04:54:07.616Z,0
2023-01-11T04:57:07.607Z,0
2023-01-11T05:00:07.721Z,0
2023-01-11T05:03:07.624Z,0
2023-01-11T05:06:07.749Z,0
2023-01-11T05:09:07.931Z,0
2023-01-11T05:12:07.933Z,0
2023-01-11T05:15:07.958Z,0
2023-01-11T05:18:07.957Z,0
2023-01-11T05:21:07.926Z,0
2023-01-11T05:24:07.945Z,0
2023-01-11T05:27:07.822Z,0
2023-01-11T05:30:07.928Z,0
2023-01-11T05:33:07.969Z,0
2023-01-11T05:36:08.160Z,0
2023-01-11T05:39:08.054Z,0
2023-01-11T05:42:07.995Z,0
2023-01-11T05:45:08.003Z,0
2023-01-11T05:48:07.880Z,0
2023-01-11T05:51:08.417Z,0
2023-01-11T05:54:07.967Z,0
2023-01-11T05:57:08.022Z,0
2023-01-11T06:00:07.949Z,0
2023-01-11T06:03:08.166Z,0
2023-01-11T06:06:08.050Z,0
2023-01-11T06:09:07.938Z,0
2023-01-11T06:12:08.240Z,0
2023-01-11T06:15:08.081Z,0
2023-01-11T06:18:07.874Z,0
2023-01-11T06:21:07.990Z,0
2023-01-11T06:24:07.918Z,0
2023-01-11T06:27:07.903Z,0
2023-01-11T06:30:07.906Z,0
2023-01-11T06:33:08.085Z,0
2023-01-11T06:36:08.016Z,0
2023-01-11T06:39:08.014Z,0
2023-01-11T06:42:08.060Z,0
2023-01-11T06:45:07.877Z,0
2023-01-11T06:48:07.920Z,0
2023-01-11T06:51:07.932Z,0
2023-01-11T06:54:08.050Z,0
2023-01-11T06:57:08.004Z,3
2023-01-11T07:00:08.567Z,3
2023-01-11T07:03:08.067Z,3
2023-01-11T07:06:07.891Z,7
2023-01-11T07:09:07.905Z,10
2023-01-11T07:12:07.886Z,13
2023-01-11T07:15:08.149Z,20
2023-01-11T07:18:07.884Z,27
2023-01-11T07:21:07.998Z,30
2023-01-11T07:24:08.003Z,37
2023-01-11T07:27:07.951Z,47
2023-01-11T07:30:10.126Z,67
2023-01-11T07:33:07.967Z,100
2023-01-11T07:36:08.045Z,87
2023-01-11T07:39:07.917Z,107
2023-01-11T07:42:08.003Z,153
2023-01-11T07:45:08.010Z,200
2023-01-11T07:48:08.033Z,253
2023-01-11T07:51:08.110Z,287
2023-01-11T07:54:07.956Z,307
2023-01-11T07:57:07.961Z,350
2023-01-11T08:00:08.015Z,373
2023-01-11T08:03:08.630Z,380
2023-01-11T08:06:08.008Z,373
2023-01-11T08:09:08.201Z,373
2023-01-11T08:12:07.999Z,463
2023-01-11T08:15:08.047Z,487
2023-01-11T08:18:08.172Z,437
2023-01-11T08:21:08.133Z,500
2023-01-11T08:24:07.949Z,640
2023-01-11T08:27:08.378Z,723
2023-01-11T08:30:08.111Z,790
2023-01-11T08:33:07.946Z,710
2023-01-11T08:36:07.972Z,633
2023-01-11T08:39:08.014Z,727
2023-01-11T08:42:08.001Z,713
2023-01-11T08:45:08.032Z,827
2023-01-11T08:48:08.051Z,1013
2023-01-11T08:51:08.015Z,1093
2023-01-11T08:54:08.483Z,1000
2023-01-11T08:57:07.915Z,977
2023-01-11T09:00:08.203Z,903
2023-01-11T09:03:08.383Z,963
2023-01-11T09:06:08.013Z,1010
2023-01-11T09:09:07.974Z,950
2023-01-11T09:12:10.149Z,973
2023-01-11T09:15:08.471Z,1043
2023-01-11T09:18:08.040Z,1210
2023-01-11T09:21:07.994Z,1383
2023-01-11T09:24:07.975Z,1670
2023-01-11T09:27:08.760Z,2510
2023-01-11T09:30:08.162Z,3490
2023-01-11T09:33:07.940Z,4337
2023-01-11T09:36:08.066Z,3713
2023-01-11T09:39:08.038Z,2573
2023-01-11T09:42:08.057Z,2377
2023-01-11T09:45:08.079Z,2530
2023-01-11T09:48:07.984Z,2880
2023-01-11T09:51:08.341Z,2490
2023-01-11T09:54:08.004Z,2277
2023-01-11T09:57:07.930Z,2250
2023-01-11T10:00:08.180Z,2280
2023-01-11T10:03:08.099Z,2507
2023-01-11T10:06:07.926Z,2563
2023-01-11T10:21:07.968Z,3370
2023-01-11T10:24:08.092Z,3133
2023-01-11T10:27:08.579Z,2963
2023-01-11T10:30:08.057Z,2470
2023-01-11T10:33:08.194Z,2863
2023-01-11T10:36:08.025Z,2830
2023-01-11T10:39:07.916Z,2670
2023-01-11T10:42:07.984Z,2773
2023-01-11T10:45:08.249Z,3757
2023-01-11T10:48:07.972Z,4453
2023-01-11T10:51:08.052Z,4227
2023-01-11T10:54:07.951Z,3497
2023-01-11T10:57:12.646Z,4523
2023-01-11T11:00:08.013Z,4607
2023-01-11T11:03:07.937Z,4400
2023-01-11T11:06:09.215Z,4130
2023-01-11T11:09:07.974Z,4240
2023-01-11T11:12:07.985Z,4067
2023-01-11T11:15:08.083Z,3667
2023-01-11T11:18:08.262Z,3600
2023-01-11T11:21:07.893Z,3333
2023-01-11T11:24:08.003Z,2867
2023-01-11T11:27:08.312Z,2820
2023-01-11T11:30:08.031Z,3343
2023-01-11T11:33:08.011Z,3630
2023-01-11T11:36:08.023Z,3783
2023-01-11T11:39:08.100Z,4030
2023-01-11T11:42:07.934Z,3557
2023-01-11T11:45:08.104Z,3510
2023-01-11T11:48:08.211Z,3300
2023-01-11T11:51:08.029Z,3170
2023-01-11T11:54:07.971Z,3167
2023-01-11T11:57:07.880Z,3497
2023-01-11T12:00:08.141Z,3473
2023-01-11T12:03:07.917Z,3433
2023-01-11T12:06:07.942Z,3293
2023-01-11T12:09:07.969Z,3317
2023-01-11T12:12:08.082Z,3027
2023-01-11T12:15:08.031Z,2867
2023-01-11T12:18:08.084Z,2553
2023-01-11T12:21:07.908Z,2320
2023-01-11T12:24:07.973Z,2287
2023-01-11T12:27:08.413Z,2197
2023-01-11T12:30:08.155Z,2253
2023-01-11T12:33:07.967Z,2377
2023-01-11T12:36:10.183Z,2547
2023-01-11T12:39:07.911Z,2553
2023-01-11T12:42:07.929Z,2930
2023-01-11T12:45:08.403Z,3297
2023-01-11T12:48:08.193Z,2957
2023-01-11T12:51:07.891Z,2263
2023-01-11T12:54:08.012Z,2023
2023-01-11T12:57:07.938Z,2303
2023-01-11T13:00:07.992Z,2047
2023-01-11T13:03:08.035Z,1943
2023-01-11T13:06:08.036Z,1753
2023-01-11T13:09:08.081Z,1823
2023-01-11T13:12:09.017Z,2280
2023-01-11T13:15:08.006Z,2530
2023-01-11T13:18:08.019Z,2287
2023-01-11T13:21:11.655Z,1980
2023-01-11T13:24:08.080Z,2143
2023-01-11T13:27:08.164Z,2127
2023-01-11T13:30:08.122Z,1987
2023-01-11T13:33:08.047Z,2417
2023-01-11T13:36:25.849Z,3003
2023-01-11T13:39:07.931Z,2643
2023-01-11T13:42:08.050Z,3283
2023-01-11T13:45:07.969Z,3303
2023-01-11T13:48:07.979Z,2600
2023-01-11T13:51:08.050Z,3140
2023-01-11T13:54:07.986Z,3877
2023-01-11T13:57:08.087Z,4047
2023-01-11T14:00:08.234Z,3267
2023-01-11T14:03:07.991Z,2183
2023-01-11T14:06:08.026Z,1913
2023-01-11T14:09:08.063Z,3063
2023-01-11T14:12:08.012Z,2763
2023-01-11T14:15:08.197Z,2667
2023-01-11T14:18:08.032Z,2280
2023-01-11T14:21:07.902Z,1863
2023-01-11T14:27:07.830Z,1190
2023-01-11T14:30:08.352Z,1003
2023-01-11T14:33:07.636Z,930
2023-01-11T14:36:07.597Z,1123
2023-01-11T14:39:07.613Z,1077
2023-01-11T14:42:07.944Z,1330
2023-01-11T14:45:07.623Z,1437
2023-01-11T14:48:07.650Z,1493
2023-01-11T14:51:07.600Z,1310
2023-01-11T14:54:07.551Z,1140
2023-01-11T14:57:07.582Z,1070
2023-01-11T15:00:07.746Z,947
2023-01-11T15:03:07.614Z,780
2023-01-11T15:06:07.686Z,667
2023-01-11T15:09:07.558Z,600
2023-01-11T15:12:07.545Z,503
2023-01-11T15:15:07.626Z,460
2023-01-11T15:18:07.664Z,440
2023-01-11T15:21:07.580Z,343
2023-01-11T15:24:07.652Z,283
2023-01-11T15:27:08.488Z,230
2023-01-11T15:30:07.638Z,203
2023-01-11T15:33:07.534Z,183
2023-01-11T15:36:07.522Z,150
2023-01-11T15:39:07.481Z,110
2023-01-11T15:42:07.503Z,73
2023-01-11T15:45:07.567Z,43
2023-01-11T15:48:07.660Z,27
2023-01-11T15:51:07.474Z,20
2023-01-11T15:54:07.463Z,13
2023-01-11T15:57:07.641Z,7
2023-01-11T16:00:07.816Z,3
2023-01-11T16:03:07.662Z,3
2023-01-11T16:06:07.507Z,3
2023-01-11T16:09:07.480Z,0
2023-01-11T16:12:07.557Z,0
2023-01-11T16:15:07.544Z,0
2023-01-11T16:18:07.518Z,0
2023-01-11T16:21:07.571Z,0
2023-01-11T16:24:07.455Z,0
2023-01-11T16:27:08.017Z,0
2023-01-11T16:30:07.741Z,0
2023-01-11T16:33:07.503Z,0
2023-01-11T16:36:07.596Z,0
2023-01-11T16:39:07.474Z,0
2023-01-11T16:42:07.590Z,0
2023-01-11T16:45:07.622Z,0
2023-01-11T16:48:07.519Z,0
2023-01-11T16:51:07.623Z,0
2023-01-11T16:54:07.771Z,0
2023-01-11T16:57:07.534Z,0
2023-01-11T17:00:07.549Z,0
2023-01-11T17:03:07.500Z,0
2023-01-11T17:06:07.446Z,0
2023-01-11T17:09:19.717Z,0
2023-01-11T17:12:07.526Z,0
2023-01-11T17:15:07.580Z,0
2023-01-11T17:18:07.471Z,0
2023-01-11T17:21:07.500Z,0
2023-01-11T17:24:07.659Z,0
2023-01-11T17:27:10.564Z,0
2023-01-11T17:30:07.637Z,0
2023-01-11T17:33:07.538Z,0
2023-01-11T17:36:07.514Z,0
2023-01-11T17:39:07.503Z,0
2023-01-11T17:42:07.515Z,0
2023-01-11T17:45:07.588Z,0
2023-01-11T17:48:07.511Z,0
2023-01-11T17:51:07.516Z,0
2023-01-11T17:54:07.506Z,0
2023-01-11T17:57:07.512Z,0
2023-01-11T18:00:07.572Z,0
2023-01-11T18:03:07.589Z,0
2023-01-11T18:06:07.963Z,0
2023-01-11T18:09:07.558Z,0
2023-01-11T18:12:07.460Z,0
2023-01-11T18:15:07.649Z,0
2023-01-11T18:18:07.571Z,0
2023-01-11T18:21:07.543Z,0
2023-01-11T18:24:07.506Z,0
2023-01-11T18:27:07.821Z,0
2023-01-11T18:30:07.473Z,0
2023-01-11T18:33:07.521Z,0
2023-01-11T18:36:07.602Z,0
2023-01-11T18:39:07.562Z,0
2023-01-11T18:42:07.556Z,0
2023-01-11T18:45:07.569Z,0
2023-01-11T18:48:07.566Z,0
2023-01-11T18:51:07.529Z,0
2023-01-11T18:54:07.514Z,0
2023-01-11T18:57:07.519Z,0
2023-01-11T19:00:07.586Z,0
2023-01-11T19:03:07.503Z,0
2023-01-11T19:06:07.533Z,0
2023-01-11T19:09:07.537Z,0
2023-01-11T19:12:07.516Z,0
2023-01-11T19:15:07.572Z,0
2023-01-11T19:21:07.529Z,0
2023-01-11T19:24:07.488Z,0
2023-01-11T19:27:07.890Z,0
2023-01-11T19:30:07.569Z,0
2023-01-11T19:33:07.766Z,0
2023-01-11T19:36:07.474Z,0
2023-01-11T19:39:07.572Z,0
2023-01-11T19:42:07.694Z,0
2023-01-11T19:45:07.570Z,0
2023-01-11T19:48:07.548Z,0
2023-01-11T19:51:07.489Z,0
2023-01-11T19:54:07.531Z,0
2023-01-11T19:57:07.494Z,0
2023-01-11T20:00:07.629Z,0
2023-01-11T20:03:07.892Z,0
2023-01-11T20:06:07.547Z,0
2023-01-11T20:09:07.613Z,0
2023-01-11T20:12:07.523Z,0
2023-01-11T20:15:07.554Z,0
2023-01-11T20:18:07.552Z,0
2023-01-11T20:21:07.615Z,0
2023-01-11T20:24:07.519Z,0
2023-01-11T20:27:08.167Z,0
2023-01-11T20:30:07.523Z,0
2023-01-11T20:33:07.550Z,0
2023-01-11T20:36:07.489Z,0
2023-01-11T20:39:07.783Z,0
2023-01-11T20:42:07.592Z,0
2023-01-11T20:45:07.537Z,0
2023-01-11T20:48:07.616Z,0
2023-01-11T20:51:07.600Z,0
2023-01-11T20:54:07.593Z,0
2023-01-11T20:57:07.735Z,0
2023-01-11T21:00:07.638Z,0
2023-01-11T21:03:07.844Z,0
2023-01-11T21:06:07.787Z,0
2023-01-11T21:09:07.552Z,0
2023-01-11T21:12:09.441Z,0
2023-01-11T21:15:07.642Z,0
2023-01-11T21:18:07.528Z,0
2023-01-11T21:21:07.552Z,0
2023-01-11T21:24:07.549Z,0
2023-01-11T21:27:07.948Z,0
2023-01-11T21:30:08.561Z,0
2023-01-11T21:33:07.578Z,0
2023-01-11T21:36:07.624Z,0
2023-01-11T21:39:07.704Z,0
2023-01-11T21:42:07.516Z,0
2023-01-11T21:45:07.882Z,0
2023-01-11T21:48:07.513Z,0
2023-01-11T21:51:07.631Z,0
2023-01-11T21:54:07.531Z,0
2023-01-11T21:57:07.533Z,0
2023-01-11T22:00:07.553Z,0
2023-01-11T22:03:07.511Z,0
2023-01-11T22:06:08.065Z,0
2023-01-11T22:09:07.535Z,0
2023-01-11T22:12:07.534Z,0
2023-01-11T22:15:07.636Z,0
2023-01-11T22:18:07.551Z,0
2023-01-11T22:21:07.636Z,0
2023-01-11T22:24:10.221Z,0
2023-01-11T22:27:07.788Z,0
2023-01-11T22:30:07.487Z,0
2023-01-11T22:33:07.506Z,0
2023-01-11T22:36:07.530Z,0
2023-01-11T22:39:07.672Z,0
2023-01-11T22:42:07.469Z,0
2023-01-11T22:45:07.601Z,0
2023-01-11T22:48:07.479Z,0
2023-01-11T22:51:07.765Z,0
2023-01-11T22:54:07.616Z,0
2023-01-11T22:57:07.546Z,0
2023-01-11T23:00:09.203Z,0
2023-01-11T23:03:07.894Z,0
2023-01-11T23:06:07.529Z,0
2023-01-11T23:09:07.586Z,0
2023-01-11T23:12:07.547Z,0
2023-01-11T23:15:07.503Z,0
2023-01-11T23:18:07.477Z,0
2023-01-11T23:21:07.471Z,0
2023-01-11T23:24:07.552Z,0
2023-01-11T23:27:07.847Z,0
2023-01-11T23:30:07.558Z,0
2023-01-11T23:33:07.556Z,0
2023-01-11T23:36:07.496Z,0
2023-01-11T23:39:07.495Z,0
2023-01-11T23:42:07.606Z,0
2023-01-11T23:45:07.550Z,0
2023-01-11T23:48:07.552Z,0
2023-01-11T23:51:07.536Z,0
2023-01-11T23:54:07.541Z,0
2023-01-11T23:57:07.634Z,0
